KIMT/IMT METAR and TAF weather

Enter ICAO airport designator
Station Type Date Time Source
KIMT METAR 2022/05/24 11:54 UTC NOAA

KIMT 241154Z AUTO 00000KT 10SM CLR 04/01 A3030 RMK AO2 SLP268 T00390011 10039 20006 53008 TSNO


Station Type Date Time Source
KIMT Decoded METAR 2022/05/24 11:54 UTC NOAA

IRON MOUNTAIN FORD AIRPORT, MI, United States (KIMT) 45-49N 88-07W 349M
May 24, 2022 - 07:54 AM EDT / 2022.05.24 1154 UTC
Wind: Calm:0
Visibility: 10 mile(s):0
Sky conditions: clear
Temperature: 39.0 F (3.9 C)
Dew Point: 34.0 F (1.1 C)
Relative Humidity: 81%
Pressure (altimeter): 30.3 in. Hg (1026 hPa)
Pressure tendency: 0.02 inches (0.8 hPa) higher than three hours ago
ob: KIMT 241154Z AUTO 00000KT 10SM CLR 04/01 A3030 RMK AO2 SLP268 T00390011 10039 20006 53008 TSNO
cycle: 12

Station Type Date Time Source
KIMT TAF UTC NOAA

Error!

Example: see airport list